sensor_id;sensor_type;location;lat;lon;timestamp;noise_LAeq;noise_LA_min;noise_LA_max;noise_LA01;noise_LA95
73638;Laerm;53743;51.100;5.874;2024-02-28T00:00:43;32.92;31.40;34.17;;
73638;Laerm;53743;51.100;5.874;2024-02-28T00:01:49;32.88;31.61;34.13;;
73638;Laerm;53743;51.100;5.874;2024-02-28T00:02:52;32.88;31.64;34.11;;
73638;Laerm;53743;51.100;5.874;2024-02-28T00:03:53;32.88;31.56;34.09;;
73638;Laerm;53743;51.100;5.874;2024-02-28T00:04:55;32.87;31.51;34.00;;
73638;Laerm;53743;51.100;5.874;2024-02-28T00:05:59;35.18;31.68;46.62;;
73638;Laerm;53743;51.100;5.874;2024-02-28T00:07:01;32.88;31.32;34.16;;
73638;Laerm;53743;51.100;5.874;2024-02-28T00:08:02;32.87;31.31;34.13;;
73638;Laerm;53743;51.100;5.874;2024-02-28T00:09:03;32.87;31.70;34.19;;
73638;Laerm;53743;51.100;5.874;2024-02-28T00:10:06;32.89;31.64;34.11;;
73638;Laerm;53743;51.100;5.874;2024-02-28T00:11:07;32.88;31.55;34.04;;
73638;Laerm;53743;51.100;5.874;2024-02-28T00:12:09;32.88;31.45;34.16;;
73638;Laerm;53743;51.100;5.874;2024-02-28T00:13:10;36.79;31.73;49.75;;
73638;Laerm;53743;51.100;5.874;2024-02-28T00:14:13;38.12;31.28;51.22;;
73638;Laerm;53743;51.100;5.874;2024-02-28T00:15:14;33.04;31.81;36.46;;
73638;Laerm;53743;51.100;5.874;2024-02-28T00:16:16;32.90;31.68;34.19;;
73638;Laerm;53743;51.100;5.874;2024-02-28T00:17:17;32.89;31.62;34.20;;
73638;Laerm;53743;51.100;5.874;2024-02-28T00:18:21;32.88;31.26;34.04;;
73638;Laerm;53743;51.100;5.874;2024-02-28T00:19:22;35.58;31.69;46.09;;
73638;Laerm;53743;51.100;5.874;2024-02-28T00:20:26;36.58;31.31;49.74;;
73638;Laerm;53743;51.100;5.874;2024-02-28T00:21:28;32.89;31.70;34.10;;
73638;Laerm;53743;51.100;5.874;2024-02-28T00:22:28;37.34;31.55;51.12;;
73638;Laerm;53743;51.100;5.874;2024-02-28T00:23:30;33.19;31.48;39.43;;
73638;Laerm;53743;51.100;5.874;2024-02-28T00:24:33;32.87;31.52;34.04;;
73638;Laerm;53743;51.100;5.874;2024-02-28T00:25:35;36.93;31.48;50.89;;
73638;Laerm;53743;51.100;5.874;2024-02-28T00:26:37;36.46;31.60;50.14;;
73638;Laerm;53743;51.100;5.874;2024-02-28T00:27:40;37.77;31.54;53.09;;
73638;Laerm;53743;51.100;5.874;2024-02-28T00:28:42;40.71;31.78;54.13;;
73638;Laerm;53743;51.100;5.874;2024-02-28T00:29:43;32.90;31.69;34.00;;
73638;Laerm;53743;51.100;5.874;2024-02-28T00:30:44;32.86;31.50;34.28;;
73638;Laerm;53743;51.100;5.874;2024-02-28T00:31:46;32.88;31.53;34.18;;
73638;Laerm;53743;51.100;5.874;2024-02-28T00:32:48;32.87;31.60;34.06;;
73638;Laerm;53743;51.100;5.874;2024-02-28T00:33:51;39.28;31.73;51.72;;
73638;Laerm;53743;51.100;5.874;2024-02-28T00:34:52;37.46;31.37;48.40;;
73638;Laerm;53743;51.100;5.874;2024-02-28T00:35:54;33.14;31.58;37.76;;
73638;Laerm;53743;51.100;5.874;2024-02-28T00:36:55;32.88;31.60;34.12;;
73638;Laerm;53743;51.100;5.874;2024-02-28T00:37:57;37.40;31.59;50.52;;
73638;Laerm;53743;51.100;5.874;2024-02-28T00:38:58;32.98;31.62;35.96;;
73638;Laerm;53743;51.100;5.874;2024-02-28T00:40:00;33.15;31.81;35.41;;
73638;Laerm;53743;51.100;5.874;2024-02-28T00:41:01;37.26;31.53;50.48;;
73638;Laerm;53743;51.100;5.874;2024-02-28T00:42:02;32.86;31.55;33.94;;
73638;Laerm;53743;51.100;5.874;2024-02-28T00:43:04;32.87;31.50;34.17;;
73638;Laerm;53743;51.100;5.874;2024-02-28T00:44:05;32.87;31.54;34.18;;
73638;Laerm;53743;51.100;5.874;2024-02-28T00:45:09;32.89;31.71;34.38;;
73638;Laerm;53743;51.100;5.874;2024-02-28T00:46:10;32.86;31.56;34.00;;
73638;Laerm;53743;51.100;5.874;2024-02-28T00:47:13;35.22;31.72;46.56;;
73638;Laerm;53743;51.100;5.874;2024-02-28T00:48:14;32.86;31.29;33.98;;
73638;Laerm;53743;51.100;5.874;2024-02-28T00:49:17;32.84;31.45;34.26;;
73638;Laerm;53743;51.100;5.874;2024-02-28T00:50:18;32.85;31.64;34.12;;
73638;Laerm;53743;51.100;5.874;2024-02-28T00:51:20;32.87;31.32;34.21;;
73638;Laerm;53743;51.100;5.874;2024-02-28T00:52:21;32.87;31.42;34.14;;
73638;Laerm;53743;51.100;5.874;2024-02-28T00:53:25;33.01;31.30;34.62;;
73638;Laerm;53743;51.100;5.874;2024-02-28T00:54:26;40.07;31.65;56.99;;
73638;Laerm;53743;51.100;5.874;2024-02-28T00:55:28;33.33;31.48;39.99;;
73638;Laerm;53743;51.100;5.874;2024-02-28T00:56:30;32.85;31.35;34.46;;
73638;Laerm;53743;51.100;5.874;2024-02-28T00:57:32;37.80;31.68;52.34;;
73638;Laerm;53743;51.100;5.874;2024-02-28T00:58:33;32.86;31.35;34.12;;
73638;Laerm;53743;51.100;5.874;2024-02-28T00:59:35;32.87;31.65;34.48;;
73638;Laerm;53743;51.100;5.874;2024-02-28T01:00:36;32.86;31.62;34.18;;
73638;Laerm;53743;51.100;5.874;2024-02-28T01:01:40;32.86;31.58;34.26;;
73638;Laerm;53743;51.100;5.874;2024-02-28T01:02:41;32.87;31.55;33.97;;
73638;Laerm;53743;51.100;5.874;2024-02-28T01:03:43;35.27;31.53;47.05;;
73638;Laerm;53743;51.100;5.874;2024-02-28T01:04:46;32.97;31.48;35.77;;
73638;Laerm;53743;51.100;5.874;2024-02-28T01:05:49;32.88;31.54;34.31;;
73638;Laerm;53743;51.100;5.874;2024-02-28T01:06:51;32.88;31.67;34.07;;
73638;Laerm;53743;51.100;5.874;2024-02-28T01:07:52;32.89;31.33;34.10;;
73638;Laerm;53743;51.100;5.874;2024-02-28T01:08:54;32.89;31.53;34.09;;
73638;Laerm;53743;51.100;5.874;2024-02-28T01:09:55;32.92;31.64;34.09;;
73638;Laerm;53743;51.100;5.874;2024-02-28T01:10:56;32.89;31.63;33.96;;
73638;Laerm;53743;51.100;5.874;2024-02-28T01:11:59;32.90;31.58;34.13;;
73638;Laerm;53743;51.100;5.874;2024-02-28T01:13:00;32.88;31.62;34.20;;
73638;Laerm;53743;51.100;5.874;2024-02-28T01:14:02;32.90;31.59;34.18;;
73638;Laerm;53743;51.100;5.874;2024-02-28T01:15:04;32.89;31.55;34.14;;
73638;Laerm;53743;51.100;5.874;2024-02-28T01:16:05;32.88;31.51;34.32;;
73638;Laerm;53743;51.100;5.874;2024-02-28T01:17:07;32.88;31.40;34.10;;
73638;Laerm;53743;51.100;5.874;2024-02-28T01:18:09;34.79;31.64;45.17;;
73638;Laerm;53743;51.100;5.874;2024-02-28T01:19:10;32.90;31.67;34.15;;
73638;Laerm;53743;51.100;5.874;2024-02-28T01:20:13;32.90;31.22;34.26;;
73638;Laerm;53743;51.100;5.874;2024-02-28T01:21:15;32.88;31.66;34.08;;
73638;Laerm;53743;51.100;5.874;2024-02-28T01:22:17;32.89;31.47;34.10;;
73638;Laerm;53743;51.100;5.874;2024-02-28T01:23:19;32.90;31.63;34.28;;
73638;Laerm;53743;51.100;5.874;2024-02-28T01:24:21;32.89;31.57;34.10;;
73638;Laerm;53743;51.100;5.874;2024-02-28T01:25:22;32.89;31.55;34.67;;
73638;Laerm;53743;51.100;5.874;2024-02-28T01:26:24;32.89;31.55;34.19;;
73638;Laerm;53743;51.100;5.874;2024-02-28T01:27:25;32.90;31.51;34.17;;
73638;Laerm;53743;51.100;5.874;2024-02-28T01:28:27;32.91;31.64;34.26;;
73638;Laerm;53743;51.100;5.874;2024-02-28T01:29:28;32.92;31.56;34.51;;
73638;Laerm;53743;51.100;5.874;2024-02-28T01:30:30;32.92;31.62;34.12;;
73638;Laerm;53743;51.100;5.874;2024-02-28T01:31:32;32.91;31.67;34.19;;
73638;Laerm;53743;51.100;5.874;2024-02-28T01:32:33;32.90;31.65;34.15;;
73638;Laerm;53743;51.100;5.874;2024-02-28T01:33:34;32.89;31.63;34.22;;
73638;Laerm;53743;51.100;5.874;2024-02-28T01:34:36;32.91;31.68;34.27;;
73638;Laerm;53743;51.100;5.874;2024-02-28T01:35:38;32.91;31.37;34.03;;
73638;Laerm;53743;51.100;5.874;2024-02-28T01:36:40;32.93;31.30;34.35;;
73638;Laerm;53743;51.100;5.874;2024-02-28T01:37:41;32.95;31.61;34.45;;
73638;Laerm;53743;51.100;5.874;2024-02-28T01:38:43;32.96;31.75;34.25;;
73638;Laerm;53743;51.100;5.874;2024-02-28T01:39:44;32.98;31.75;34.12;;
73638;Laerm;53743;51.100;5.874;2024-02-28T01:40:47;32.98;31.69;34.28;;
73638;Laerm;53743;51.100;5.874;2024-02-28T01:41:52;33.01;31.74;34.25;;
73638;Laerm;53743;51.100;5.874;2024-02-28T01:42:54;32.99;31.60;34.18;;
73638;Laerm;53743;51.100;5.874;2024-02-28T01:43:55;33.00;31.44;34.29;;
73638;Laerm;53743;51.100;5.874;2024-02-28T01:44:57;32.99;31.58;34.35;;
73638;Laerm;53743;51.100;5.874;2024-02-28T01:46:03;33.00;31.48;34.13;;
73638;Laerm;53743;51.100;5.874;2024-02-28T01:47:07;33.00;31.84;34.38;;
73638;Laerm;53743;51.100;5.874;2024-02-28T01:48:11;33.00;31.55;34.23;;
73638;Laerm;53743;51.100;5.874;2024-02-28T01:49:16;33.01;31.64;34.23;;
73638;Laerm;53743;51.100;5.874;2024-02-28T01:50:18;33.01;31.54;34.44;;
73638;Laerm;53743;51.100;5.874;2024-02-28T01:51:22;33.03;31.61;34.30;;
73638;Laerm;53743;51.100;5.874;2024-02-28T01:52:24;33.03;31.52;34.38;;
73638;Laerm;53743;51.100;5.874;2024-02-28T01:53:26;33.03;31.62;34.18;;
73638;Laerm;53743;51.100;5.874;2024-02-28T01:54:29;33.05;31.35;34.14;;
73638;Laerm;53743;51.100;5.874;2024-02-28T01:55:31;39.23;31.48;54.61;;
73638;Laerm;53743;51.100;5.874;2024-02-28T01:56:33;33.06;31.59;34.44;;
73638;Laerm;53743;51.100;5.874;2024-02-28T01:57:37;33.08;31.50;34.36;;
73638;Laerm;53743;51.100;5.874;2024-02-28T01:58:39;33.08;31.67;34.50;;
73638;Laerm;53743;51.100;5.874;2024-02-28T01:59:41;33.07;31.68;34.31;;
73638;Laerm;53743;51.100;5.874;2024-02-28T02:00:45;33.07;31.92;34.53;;
73638;Laerm;53743;51.100;5.874;2024-02-28T02:01:46;33.10;31.59;34.39;;
73638;Laerm;53743;51.100;5.874;2024-02-28T02:02:48;33.11;31.76;34.56;;
73638;Laerm;53743;51.100;5.874;2024-02-28T02:03:49;33.12;31.67;34.29;;
73638;Laerm;53743;51.100;5.874;2024-02-28T02:04:51;33.14;31.71;34.64;;
73638;Laerm;53743;51.100;5.874;2024-02-28T02:05:54;33.16;31.72;34.53;;
73638;Laerm;53743;51.100;5.874;2024-02-28T02:06:58;33.16;31.60;34.33;;
73638;Laerm;53743;51.100;5.874;2024-02-28T02:08:01;33.18;31.85;34.37;;
73638;Laerm;53743;51.100;5.874;2024-02-28T02:09:03;33.17;31.69;34.84;;
73638;Laerm;53743;51.100;5.874;2024-02-28T02:10:05;37.68;31.86;51.80;;
73638;Laerm;53743;51.100;5.874;2024-02-28T02:11:09;36.60;31.83;50.62;;
73638;Laerm;53743;51.100;5.874;2024-02-28T02:12:11;33.21;31.74;34.42;;
73638;Laerm;53743;51.100;5.874;2024-02-28T02:13:12;33.20;31.39;34.68;;
73638;Laerm;53743;51.100;5.874;2024-02-28T02:14:14;33.24;31.71;34.54;;
73638;Laerm;53743;51.100;5.874;2024-02-28T02:15:15;35.13;31.70;44.78;;
73638;Laerm;53743;51.100;5.874;2024-02-28T02:16:18;33.23;32.01;34.56;;
73638;Laerm;53743;51.100;5.874;2024-02-28T02:17:19;33.22;31.71;34.79;;
73638;Laerm;53743;51.100;5.874;2024-02-28T02:18:21;33.23;31.90;34.57;;
73638;Laerm;53743;51.100;5.874;2024-02-28T02:19:23;33.24;31.80;34.74;;
73638;Laerm;53743;51.100;5.874;2024-02-28T02:20:30;33.23;31.87;34.34;;
73638;Laerm;53743;51.100;5.874;2024-02-28T02:21:46;33.25;31.61;34.59;;
73638;Laerm;53743;51.100;5.874;2024-02-28T02:22:53;33.27;31.95;34.40;;
73638;Laerm;53743;51.100;5.874;2024-02-28T02:23:54;33.35;31.97;36.25;;
73638;Laerm;53743;51.100;5.874;2024-02-28T02:24:56;38.41;32.10;53.02;;
73638;Laerm;53743;51.100;5.874;2024-02-28T02:25:57;33.27;31.73;34.54;;
73638;Laerm;53743;51.100;5.874;2024-02-28T02:26:59;33.27;31.90;34.74;;
73638;Laerm;53743;51.100;5.874;2024-02-28T02:28:00;33.28;31.97;34.58;;
73638;Laerm;53743;51.100;5.874;2024-02-28T02:29:02;33.28;31.98;34.61;;
73638;Laerm;53743;51.100;5.874;2024-02-28T02:30:05;33.31;31.87;34.93;;
73638;Laerm;53743;51.100;5.874;2024-02-28T02:31:06;33.30;32.13;34.69;;
73638;Laerm;53743;51.100;5.874;2024-02-28T02:32:08;33.31;31.90;34.46;;
73638;Laerm;53743;51.100;5.874;2024-02-28T02:33:09;33.33;31.97;34.55;;
73638;Laerm;53743;51.100;5.874;2024-02-28T02:34:11;37.39;32.14;51.10;;
73638;Laerm;53743;51.100;5.874;2024-02-28T02:35:12;33.29;31.99;34.45;;
73638;Laerm;53743;51.100;5.874;2024-02-28T02:36:14;33.33;31.83;34.54;;
73638;Laerm;53743;51.100;5.874;2024-02-28T02:37:15;33.56;32.13;38.31;;
73638;Laerm;53743;51.100;5.874;2024-02-28T02:38:18;36.66;31.89;49.56;;
73638;Laerm;53743;51.100;5.874;2024-02-28T02:39:19;35.12;32.15;46.51;;
73638;Laerm;53743;51.100;5.874;2024-02-28T02:40:21;33.52;31.98;39.21;;
73638;Laerm;53743;51.100;5.874;2024-02-28T02:41:22;33.34;31.90;34.55;;
73638;Laerm;53743;51.100;5.874;2024-02-28T02:42:24;33.33;32.22;34.45;;
73638;Laerm;53743;51.100;5.874;2024-02-28T02:43:25;33.34;32.06;34.79;;
73638;Laerm;53743;51.100;5.874;2024-02-28T02:44:26;33.34;31.82;34.77;;
73638;Laerm;53743;51.100;5.874;2024-02-28T02:45:28;33.37;32.03;34.76;;
73638;Laerm;53743;51.100;5.874;2024-02-28T02:46:29;33.34;31.78;34.51;;
73638;Laerm;53743;51.100;5.874;2024-02-28T02:47:31;33.35;31.60;34.75;;
73638;Laerm;53743;51.100;5.874;2024-02-28T02:48:32;33.35;31.80;34.47;;
73638;Laerm;53743;51.100;5.874;2024-02-28T02:49:34;33.36;31.98;34.58;;
73638;Laerm;53743;51.100;5.874;2024-02-28T02:50:35;33.38;31.84;34.78;;
73638;Laerm;53743;51.100;5.874;2024-02-28T02:51:37;33.37;31.93;34.68;;
73638;Laerm;53743;51.100;5.874;2024-02-28T02:52:38;33.37;31.80;34.63;;
73638;Laerm;53743;51.100;5.874;2024-02-28T02:53:42;33.37;31.67;34.56;;
73638;Laerm;53743;51.100;5.874;2024-02-28T02:54:43;33.37;31.90;34.68;;
73638;Laerm;53743;51.100;5.874;2024-02-28T02:55:45;33.39;32.09;34.68;;
73638;Laerm;53743;51.100;5.874;2024-02-28T02:56:46;33.38;31.94;34.81;;
73638;Laerm;53743;51.100;5.874;2024-02-28T02:57:48;33.39;32.15;34.58;;
73638;Laerm;53743;51.100;5.874;2024-02-28T02:58:49;33.35;31.79;34.51;;
73638;Laerm;53743;51.100;5.874;2024-02-28T02:59:51;33.36;31.79;34.70;;
73638;Laerm;53743;51.100;5.874;2024-02-28T03:00:52;33.37;31.92;34.70;;
73638;Laerm;53743;51.100;5.874;2024-02-28T03:01:54;33.38;32.16;34.78;;
73638;Laerm;53743;51.100;5.874;2024-02-28T03:02:55;33.37;32.25;34.62;;
73638;Laerm;53743;51.100;5.874;2024-02-28T03:03:57;33.36;32.05;34.59;;
73638;Laerm;53743;51.100;5.874;2024-02-28T03:04:58;33.36;32.03;34.57;;
73638;Laerm;53743;51.100;5.874;2024-02-28T03:06:00;37.59;31.76;51.48;;
73638;Laerm;53743;51.100;5.874;2024-02-28T03:07:01;33.36;31.97;34.59;;
73638;Laerm;53743;51.100;5.874;2024-02-28T03:08:04;33.35;32.11;34.56;;
73638;Laerm;53743;51.100;5.874;2024-02-28T03:09:06;33.37;32.08;34.80;;
73638;Laerm;53743;51.100;5.874;2024-02-28T03:10:09;33.38;32.18;34.70;;
73638;Laerm;53743;51.100;5.874;2024-02-28T03:11:11;33.40;32.03;34.60;;
73638;Laerm;53743;51.100;5.874;2024-02-28T03:12:13;39.66;31.98;52.13;;
73638;Laerm;53743;51.100;5.874;2024-02-28T03:13:14;33.38;32.00;34.62;;
73638;Laerm;53743;51.100;5.874;2024-02-28T03:14:16;33.35;32.11;34.98;;
73638;Laerm;53743;51.100;5.874;2024-02-28T03:15:17;33.35;31.71;35.01;;
73638;Laerm;53743;51.100;5.874;2024-02-28T03:16:19;33.36;31.85;34.58;;
73638;Laerm;53743;51.100;5.874;2024-02-28T03:17:20;33.36;31.39;34.91;;
73638;Laerm;53743;51.100;5.874;2024-02-28T03:18:21;33.34;31.89;34.74;;
73638;Laerm;53743;51.100;5.874;2024-02-28T03:19:23;33.34;32.07;35.04;;
73638;Laerm;53743;51.100;5.874;2024-02-28T03:20:24;33.33;32.07;34.76;;
73638;Laerm;53743;51.100;5.874;2024-02-28T03:21:26;33.33;31.99;34.90;;
73638;Laerm;53743;51.100;5.874;2024-02-28T03:22:27;33.34;32.05;34.52;;
73638;Laerm;53743;51.100;5.874;2024-02-28T03:23:29;33.33;31.95;34.61;;
73638;Laerm;53743;51.100;5.874;2024-02-28T03:24:31;33.35;31.82;34.73;;
73638;Laerm;53743;51.100;5.874;2024-02-28T03:25:36;33.33;32.12;34.76;;
73638;Laerm;53743;51.100;5.874;2024-02-28T03:26:37;33.32;31.83;34.44;;
73638;Laerm;53743;51.100;5.874;2024-02-28T03:27:39;38.01;32.08;54.18;;
73638;Laerm;53743;51.100;5.874;2024-02-28T03:28:40;35.10;31.98;49.11;;
73638;Laerm;53743;51.100;5.874;2024-02-28T03:29:41;33.35;32.02;34.65;;
73638;Laerm;53743;51.100;5.874;2024-02-28T03:30:43;33.34;32.03;34.66;;
73638;Laerm;53743;51.100;5.874;2024-02-28T03:31:44;33.35;31.90;34.78;;
73638;Laerm;53743;51.100;5.874;2024-02-28T03:32:45;33.34;31.88;34.52;;
73638;Laerm;53743;51.100;5.874;2024-02-28T03:33:47;33.35;32.03;34.72;;
73638;Laerm;53743;51.100;5.874;2024-02-28T03:34:48;33.35;31.97;34.76;;
73638;Laerm;53743;51.100;5.874;2024-02-28T03:35:50;36.09;31.93;47.62;;
73638;Laerm;53743;51.100;5.874;2024-02-28T03:36:52;34.97;32.01;44.98;;
73638;Laerm;53743;51.100;5.874;2024-02-28T03:37:53;38.95;32.30;56.07;;
73638;Laerm;53743;51.100;5.874;2024-02-28T03:38:55;33.33;31.76;34.59;;
73638;Laerm;53743;51.100;5.874;2024-02-28T03:39:57;33.34;31.96;34.67;;
73638;Laerm;53743;51.100;5.874;2024-02-28T03:40:59;37.71;32.04;53.34;;
73638;Laerm;53743;51.100;5.874;2024-02-28T03:42:00;33.59;31.99;38.25;;
73638;Laerm;53743;51.100;5.874;2024-02-28T03:43:03;39.28;31.90;54.79;;
73638;Laerm;53743;51.100;5.874;2024-02-28T03:44:05;36.86;32.13;50.71;;
73638;Laerm;53743;51.100;5.874;2024-02-28T03:45:08;33.34;32.14;34.66;;
73638;Laerm;53743;51.100;5.874;2024-02-28T03:46:09;38.02;32.32;51.11;;
73638;Laerm;53743;51.100;5.874;2024-02-28T03:47:11;40.13;32.19;56.68;;
73638;Laerm;53743;51.100;5.874;2024-02-28T03:48:12;37.66;32.12;54.57;;
73638;Laerm;53743;51.100;5.874;2024-02-28T03:49:13;37.20;32.21;48.97;;
73638;Laerm;53743;51.100;5.874;2024-02-28T03:50:15;33.34;31.84;34.97;;
73638;Laerm;53743;51.100;5.874;2024-02-28T03:51:16;33.35;31.98;34.76;;
73638;Laerm;53743;51.100;5.874;2024-02-28T03:52:18;33.34;32.04;34.79;;
73638;Laerm;53743;51.100;5.874;2024-02-28T03:53:19;33.37;31.93;34.78;;
73638;Laerm;53743;51.100;5.874;2024-02-28T03:54:21;38.87;32.03;53.29;;
73638;Laerm;53743;51.100;5.874;2024-02-28T03:55:23;33.34;31.87;34.99;;
73638;Laerm;53743;51.100;5.874;2024-02-28T03:56:25;33.34;32.02;34.49;;
73638;Laerm;53743;51.100;5.874;2024-02-28T03:57:27;33.33;31.85;34.55;;
73638;Laerm;53743;51.100;5.874;2024-02-28T03:58:28;39.51;32.27;55.85;;
73638;Laerm;53743;51.100;5.874;2024-02-28T03:59:30;33.35;31.90;34.66;;
73638;Laerm;53743;51.100;5.874;2024-02-28T04:00:31;38.53;32.23;51.54;;
73638;Laerm;53743;51.100;5.874;2024-02-28T04:01:33;39.69;32.22;55.60;;
73638;Laerm;53743;51.100;5.874;2024-02-28T04:02:34;33.34;32.02;34.49;;
73638;Laerm;53743;51.100;5.874;2024-02-28T04:03:36;33.34;32.06;34.62;;
73638;Laerm;53743;51.100;5.874;2024-02-28T04:04:37;33.35;31.72;34.74;;
73638;Laerm;53743;51.100;5.874;2024-02-28T04:05:39;33.35;32.09;34.59;;
73638;Laerm;53743;51.100;5.874;2024-02-28T04:06:40;33.37;31.88;34.64;;
73638;Laerm;53743;51.100;5.874;2024-02-28T04:07:41;33.36;31.89;34.75;;
73638;Laerm;53743;51.100;5.874;2024-02-28T04:08:43;33.46;31.90;36.65;;
73638;Laerm;53743;51.100;5.874;2024-02-28T04:09:44;34.91;31.83;44.84;;
73638;Laerm;53743;51.100;5.874;2024-02-28T04:10:47;38.34;32.11;53.67;;
73638;Laerm;53743;51.100;5.874;2024-02-28T04:11:50;33.37;31.97;34.84;;
73638;Laerm;53743;51.100;5.874;2024-02-28T04:12:52;39.71;32.12;55.85;;
73638;Laerm;53743;51.100;5.874;2024-02-28T04:13:54;33.41;32.06;35.38;;
73638;Laerm;53743;51.100;5.874;2024-02-28T04:14:55;38.46;32.03;52.50;;
73638;Laerm;53743;51.100;5.874;2024-02-28T04:15:56;33.35;32.02;34.85;;
73638;Laerm;53743;51.100;5.874;2024-02-28T04:16:59;37.12;32.24;48.48;;
73638;Laerm;53743;51.100;5.874;2024-02-28T04:17:59;36.59;31.91;50.12;;
73638;Laerm;53743;51.100;5.874;2024-02-28T04:19:01;33.35;31.91;34.68;;
73638;Laerm;53743;51.100;5.874;2024-02-28T04:20:03;33.34;32.12;34.76;;
73638;Laerm;53743;51.100;5.874;2024-02-28T04:21:05;33.31;31.72;34.45;;
73638;Laerm;53743;51.100;5.874;2024-02-28T04:22:07;38.32;32.05;50.85;;
73638;Laerm;53743;51.100;5.874;2024-02-28T04:23:09;36.97;32.08;50.68;;
73638;Laerm;53743;51.100;5.874;2024-02-28T04:24:10;33.42;31.93;36.70;;
73638;Laerm;53743;51.100;5.874;2024-02-28T04:25:12;37.81;31.95;51.36;;
73638;Laerm;53743;51.100;5.874;2024-02-28T04:26:14;33.49;31.94;37.31;;
73638;Laerm;53743;51.100;5.874;2024-02-28T04:27:16;33.33;31.77;34.58;;
73638;Laerm;53743;51.100;5.874;2024-02-28T04:28:17;33.35;31.87;35.09;;
73638;Laerm;53743;51.100;5.874;2024-02-28T04:29:18;33.44;32.00;37.19;;
73638;Laerm;53743;51.100;5.874;2024-02-28T04:30:20;38.93;32.14;53.97;;
73638;Laerm;53743;51.100;5.874;2024-02-28T04:31:21;33.36;32.14;34.88;;
73638;Laerm;53743;51.100;5.874;2024-02-28T04:32:23;33.34;31.88;34.47;;
73638;Laerm;53743;51.100;5.874;2024-02-28T04:33:25;33.34;32.07;34.73;;
73638;Laerm;53743;51.100;5.874;2024-02-28T04:34:27;33.45;32.03;35.83;;
73638;Laerm;53743;51.100;5.874;2024-02-28T04:35:28;41.53;32.23;52.17;;
73638;Laerm;53743;51.100;5.874;2024-02-28T04:36:30;33.50;32.17;35.32;;
73638;Laerm;53743;51.100;5.874;2024-02-28T04:37:32;33.41;31.76;35.01;;
73638;Laerm;53743;51.100;5.874;2024-02-28T04:38:35;37.65;32.29;49.43;;
73638;Laerm;53743;51.100;5.874;2024-02-28T04:39:37;33.40;31.90;34.77;;
73638;Laerm;53743;51.100;5.874;2024-02-28T04:40:38;33.42;31.90;35.07;;
73638;Laerm;53743;51.100;5.874;2024-02-28T04:41:41;33.43;32.07;34.92;;
73638;Laerm;53743;51.100;5.874;2024-02-28T04:42:43;34.54;32.04;46.39;;
73638;Laerm;53743;51.100;5.874;2024-02-28T04:43:45;36.42;32.08;49.71;;
73638;Laerm;53743;51.100;5.874;2024-02-28T04:44:46;39.78;32.11;56.20;;
73638;Laerm;53743;51.100;5.874;2024-02-28T04:45:47;36.24;32.29;48.57;;
73638;Laerm;53743;51.100;5.874;2024-02-28T04:46:48;39.71;32.27;53.80;;
73638;Laerm;53743;51.100;5.874;2024-02-28T04:47:50;33.43;32.04;34.81;;
73638;Laerm;53743;51.100;5.874;2024-02-28T04:48:52;41.10;32.10;54.05;;
73638;Laerm;53743;51.100;5.874;2024-02-28T04:49:54;41.74;32.41;53.76;;
73638;Laerm;53743;51.100;5.874;2024-02-28T04:50:55;33.53;31.64;36.89;;
73638;Laerm;53743;51.100;5.874;2024-02-28T04:51:56;37.29;32.28;48.97;;
73638;Laerm;53743;51.100;5.874;2024-02-28T04:52:59;37.33;32.07;52.12;;
73638;Laerm;53743;51.100;5.874;2024-02-28T04:54:00;33.60;32.01;36.36;;
73638;Laerm;53743;51.100;5.874;2024-02-28T04:55:02;33.38;32.14;34.80;;
73638;Laerm;53743;51.100;5.874;2024-02-28T04:56:04;33.40;32.03;34.79;;
73638;Laerm;53743;51.100;5.874;2024-02-28T04:57:07;33.40;32.12;34.70;;
73638;Laerm;53743;51.100;5.874;2024-02-28T04:58:09;38.97;31.85;54.44;;
73638;Laerm;53743;51.100;5.874;2024-02-28T04:59:12;33.37;31.79;34.97;;
73638;Laerm;53743;51.100;5.874;2024-02-28T05:00:15;40.43;32.04;57.20;;
73638;Laerm;53743;51.100;5.874;2024-02-28T05:01:16;37.29;31.94;50.57;;
73638;Laerm;53743;51.100;5.874;2024-02-28T05:02:18;38.58;31.92;50.21;;
73638;Laerm;53743;51.100;5.874;2024-02-28T05:03:19;38.56;32.03;52.65;;
73638;Laerm;53743;51.100;5.874;2024-02-28T05:04:23;37.45;31.98;52.74;;
73638;Laerm;53743;51.100;5.874;2024-02-28T05:05:24;40.79;32.27;53.07;;
73638;Laerm;53743;51.100;5.874;2024-02-28T05:06:26;39.41;32.24;52.62;;
73638;Laerm;53743;51.100;5.874;2024-02-28T05:07:27;40.67;32.40;53.09;;
73638;Laerm;53743;51.100;5.874;2024-02-28T05:08:29;38.20;31.63;51.26;;
73638;Laerm;53743;51.100;5.874;2024-02-28T05:09:30;33.46;32.21;35.97;;
73638;Laerm;53743;51.100;5.874;2024-02-28T05:10:32;38.76;32.24;51.11;;
73638;Laerm;53743;51.100;5.874;2024-02-28T05:11:34;33.45;31.79;35.02;;
73638;Laerm;53743;51.100;5.874;2024-02-28T05:12:38;38.75;32.13;53.19;;
73638;Laerm;53743;51.100;5.874;2024-02-28T05:13:39;42.51;32.14;56.64;;
73638;Laerm;53743;51.100;5.874;2024-02-28T05:14:40;38.57;32.33;53.82;;
73638;Laerm;53743;51.100;5.874;2024-02-28T05:15:42;33.41;31.82;34.70;;
73638;Laerm;53743;51.100;5.874;2024-02-28T05:16:43;35.93;31.84;47.79;;
73638;Laerm;53743;51.100;5.874;2024-02-28T05:17:45;33.39;32.11;34.66;;
73638;Laerm;53743;51.100;5.874;2024-02-28T05:18:46;42.40;32.18;55.79;;
73638;Laerm;53743;51.100;5.874;2024-02-28T05:19:48;42.15;32.34;53.27;;
73638;Laerm;53743;51.100;5.874;2024-02-28T05:20:49;33.38;32.16;34.73;;
73638;Laerm;53743;51.100;5.874;2024-02-28T05:21:51;37.80;32.02;49.37;;
73638;Laerm;53743;51.100;5.874;2024-02-28T05:22:52;40.23;32.09;54.31;;
73638;Laerm;53743;51.100;5.874;2024-02-28T05:23:54;41.05;32.48;51.90;;
73638;Laerm;53743;51.100;5.874;2024-02-28T05:24:56;33.77;32.01;36.89;;
73638;Laerm;53743;51.100;5.874;2024-02-28T05:25:59;38.45;32.42;50.11;;
73638;Laerm;53743;51.100;5.874;2024-02-28T05:27:04;33.54;32.01;35.21;;
73638;Laerm;53743;51.100;5.874;2024-02-28T05:28:08;38.74;32.42;50.79;;
73638;Laerm;53743;51.100;5.874;2024-02-28T05:29:08;38.27;32.09;53.89;;
73638;Laerm;53743;51.100;5.874;2024-02-28T05:30:12;36.60;32.12;52.53;;
73638;Laerm;53743;51.100;5.874;2024-02-28T05:31:22;43.57;32.36;55.73;;
73638;Laerm;53743;51.100;5.874;2024-02-28T05:32:24;43.95;32.10;59.40;;
73638;Laerm;53743;51.100;5.874;2024-02-28T05:33:25;41.78;32.40;52.26;;
73638;Laerm;53743;51.100;5.874;2024-02-28T05:34:27;40.12;32.12;52.31;;
73638;Laerm;53743;51.100;5.874;2024-02-28T05:35:28;43.85;32.46;53.98;;
73638;Laerm;53743;51.100;5.874;2024-02-28T05:36:31;35.83;32.20;47.68;;
73638;Laerm;53743;51.100;5.874;2024-02-28T05:37:32;34.83;31.93;46.80;;
73638;Laerm;53743;51.100;5.874;2024-02-28T05:38:35;39.49;32.38;51.69;;
73638;Laerm;53743;51.100;5.874;2024-02-28T05:39:36;40.62;32.43;52.85;;
73638;Laerm;53743;51.100;5.874;2024-02-28T05:40:38;40.85;32.32;55.48;;
73638;Laerm;53743;51.100;5.874;2024-02-28T05:41:39;41.34;32.79;51.17;;
73638;Laerm;53743;51.100;5.874;2024-02-28T05:42:41;42.75;33.05;54.16;;
73638;Laerm;53743;51.100;5.874;2024-02-28T05:43:45;41.46;32.40;56.74;;
73638;Laerm;53743;51.100;5.874;2024-02-28T05:44:46;42.39;33.76;53.04;;
73638;Laerm;53743;51.100;5.874;2024-02-28T05:45:48;34.92;31.78;48.11;;
73638;Laerm;53743;51.100;5.874;2024-02-28T05:46:49;36.18;32.14;48.95;;